Air Resources Laboratory banner image
Air Resources Laboratory web site National Oceanic and Atmospheric Administration (NOAA)

ca metar


KAAT 121755Z AUTO 00000KT 10SM CLR M01/M06 A3049 RMK AO2 SLP355 T10061056 11006
 21128 56009 TSNO=
KACV 121753Z AUTO 00000KT 10SM CLR 12/06 A3035 RMK AO2 SLP285 T01170056 10117
 20039 53006=
KAPC 121754Z 00000KT 10SM CLR 09/04 A3036 RMK AO2 SLP270 T00940039 10094 21022
 51007=
KAVX 121751Z AUTO VRB05KT 10SM CLR 24/M21 A3024 RMK AO2 SLP214 T02441206 10250
 20183 51007=
KBAB 121758Z AUTO 00000KT 10SM CLR 08/03 A3035 RMK AO2 SLP281 53004=
KBFL 121754Z 00000KT 4SM HZ CLR 11/M01 A3034 RMK AO2 SLP274 T01111006 10111
 20011 50003=
KBIH 121756Z AUTO 01006KT 10SM CLR 12/M21 A3046 RMK AO2 SLP311 T01221206 10122
 21056 50001 TSNO=
KBLH 121752Z AUTO 00000KT 10SM CLR 16/M19 A3028 RMK AO2 SLP250 T01561189 10156
 20033 50002=
KBLU 121752Z AUTO 04004KT 10SM CLR 18/M16 A3043 RMK AO2 SLP237 T01781156 10178
 20111 51004 TSNO=
KBUR 121753Z 00000KT 10SM CLR 19/M14 A3021 RMK AO2 SLP221 T01941139 10194 20067
 50004 $=
KBYS 121755Z AUTO 05001KT 1/2SM HZ CLR 13/M22 A3037 RMK AO2 SLP306 WND DATA
 ESTMD T01331216 10026 21035 50000 $=
KCCR 121753Z VRB03KT 9SM CLR 09/04 A3036 RMK AO2 SLP268 T00940044 10094 20011
 51005=
KCEC 121756Z AUTO 09003KT 10SM CLR 12/M01 A3038 RMK AO2 SLP290 T01171006 10117
 20056 53008=
KCIC 121747Z 00000KT 40SM SKC 07/02 A3036=
KCMA 121755Z 09013KT 10SM CLR 26/M18 A3019 RMK AO2 SLP230 T02611178 10261 20083
 51003=
KCNO 121753Z 00000KT 10SM FEW200 21/M09 A3022 RMK AO2 SLP230 T02111089 10211
 20028 50000=
KCQT 121747Z AUTO VRB03KT 10SM CLR 23/M14 A3018 RMK AO2 SLP220 T02281144 10228
 20128 50000=
KCRQ 121753Z AUTO 00000KT 10SM CLR 23/M10 A3017 RMK AO2 SLP215 T02331100 10239
 20106 50003=
KCZZ 121752Z AUTO 06021G26KT 21/M22 A3020 RMK AO1 PK WND 07026/1752 SLP202
 T02111222 10211 20033 58000=
KDAG 121750Z AUTO 27014KT 10SM CLR 10/M20 A3037 RMK AO2 SLP283 T01001200 10100
 21006 50004=
KEDW 121758Z 00000KT 80SM FEW180 FEW300 04/M24 A3037 RMK AO2A SLP294 T00401239
 10040 21095 50003=
KEED 121756Z AUTO 01009KT 10SM CLR 19/M16 A3030 RMK AO2 SLP247 T01891161 10189
 20111 50004=
KEMT 121745Z 00000KT 10SM CLR 19/M06 A3022=
KFAT 121753Z 00000KT 3SM HZ FEW200 09/02 A3036 RMK AO2 SLP280 VIS E 2 T00890022
 10089 20011 50002=
KFCH 121755Z AUTO 00000KT 08/04 A3036 RMK A01=
KFOT 121755Z AUTO 14010KT 10SM CLR 05/01 A3037 RMK AO1=
KFUL 121753Z 00000KT 10SM CLR 22/M04 A3018 RMK AO2 SLP217 T02171039 10217 20067
 50001=
KHHR 121753Z 00000KT 10SM CLR 23/M11 A3019 RMK AO2 SLP223 T02281111 10228 20089
 50002=
KHJO 121753Z AUTO 00000KT 2SM HZ CLR 07/04 A3037 RMK AO2 SLP287 T00720039 10072
 21022 51005=
KHWD 121754Z 00000KT 10SM CLR 12/01 A3034 RMK AO2 SLP283 T01170011 10117 20028
 51006=
KIPL 121753Z AUTO 00000KT 10SM CLR 18/M04 A3023 RMK AO2 SLP235 T01831039 10183
 20061 50001 TSNO=
KIZA 121755Z AUTO 00000KT 5SM HZ CLR 10/M10 A3023 RMK AO2=
KLAX 121753Z 36006KT 10SM FEW100 FEW150 24/M16 A3019 RMK AO2 SLP221 T02441161
 10244 20128 50002=
KLGB 121753Z 33004KT 10SM CLR 21/M08 A3019 RMK AO2 SLP222 T02061078 10206 20089
 50001 $=
KLVK 121753Z 00000KT 10SM CLR 09/01 A3034 RMK AO2 SLP274 T00890011 10089 21006
 50004=
KMAE 121753Z AUTO 00000KT 3SM HZ CLR 09/03 A3036 RMK AO2 SLP282 T00940033 10094
 20000 50003=
KMCC 121750Z AUTO 00000KT 7SM CLR 08/04 A3039 RMK AO2=
KMCE 121753Z AUTO 00000KT 5SM HZ CLR 09/03 A3036 RMK AO2 SLP282 I6000 T00890033
 10089 21011 50006=
KMER 121745Z 00000KT 5SM BR SKC 09/06 A3037=
KMHR 121745Z 21003KT 10SM SKC 08/05 A3036=
KMHS 121756Z AUTO 32006KT 10SM CLR 03/M04 A3046 RMK AO2 SLP354 T00331044 10033
 21050 53003=
KMHV 121740Z AUTO 00000KT 10SM CLR 10/M22 A3038 RMK A01=
KMMH 121755Z AUTO 16004KT 10SM CLR 01/M11 A3056 RMK AO2 T00071114 10007 21159=
KMOD 121753Z 00000KT 4SM HZ CLR 08/04 A3036 RMK AO2 SLP281 T00830044 10083
 21006 50008=
KMRY 121754Z 00000KT 10SM FU CLR 16/M02 A3029 RMK AO2 SLP268 T01611022 10161
 20061 52005=
KMYF 121753Z 00000KT 10SM CLR 26/M14 A3018 RMK AO2 RAB43E50 SLP216 P0000 60000
 T02611144 10261 20050 50004=
KMYV 121753Z AUTO 00000KT 10SM CLR 09/05 A3037 RMK AO2 SLP289 T00890050 10089
 21022 53003=
KNFG 121755Z 00000KT 10SM FEW250 18/M10 A3018 RMK AO2 SLP218 T01781100 58002 $=
KNID 121756Z 32003KT 10SM CLR 05/M22 A3037 RMK AO2 SLP298 T00501222 10056 21083
 50002=
KNJK 121756Z 36003KT 10SM CLR 19/M07 A3025 RMK AO2 SLP258 T01891072 10189 20039
 $=
KNKX 121755Z 03003KT 10SM FEW250 27/M13 A3018 RMK AO2 SLP215 T02671128 10267
 20122 50004=
KNLC 121756Z 14003KT 4SM HZ SCT230 06/01 A3037 RMK AO2 SLP285 RH/67 T00610006
 53003 $=
KNRS 121756Z 01006KT 10SM FEW010 FEW250 24/M09 A3017 RMK AO2 SLP216 FU FEW010
 T02391089 10239 20117 58001 $=
KNSI 121757Z 06006KT 10SM FEW280 22/M01 A3019 RMK AO2 SLP218 T02221011 10233
 20150 51005 $=
KNTD 121756Z 07013G29KT 10SM FEW025 FEW250 27/M16 A3020 RMK AO2 PK WND
 08029/1754 SLP227 FU DSNT W-N T02671161 10267 20106 51004 $=
KNUC 121756Z 11013KT 10SM FEW250 22/01 A3019 RMK SLP222 T02170006 51005=
KNUQ 121756Z 00000KT 10SM CLR 11/04 A3034 RMK AO2 SLP277 T01110044 10111 20039
 51004=
KNXP 121756Z 00000KT 10SM CLR 13/M27 A3039 RMK AO2 SLP274 FIRST T01281267 10128
 20028 50001=
KOAK 121753Z 00000KT 10SM FEW200 10/06 A3034 RMK AO2 SLP274 T01000061 10100
 20006 53006=
KOKB 121752Z AUTO 07003KT 10SM CLR 21/M08 A3017 RMK AO2 SLP216 T02111083 10211
 20056 58001=
KONT 121753Z 32003KT 10SM FEW250 21/M17 A3021 RMK AO2 SLP222 T02111167 10211
 20056 50001=
KOVE 121753Z AUTO 17003KT 10SM CLR 09/05 A3036 RMK AO2 SLP285 T00890050 10089
 20006 51004=
KOXR 121751Z 09005KT 10SM FU CLR 24/M10 A3019 RMK AO2 SLP221 T02441100 10244
 20128 50002=
KPAO 121747Z 00000KT 10SM SKC 11/06 A3034=
KPMD 121753Z AUTO 00000KT 10SM CLR 08/M21 A3038 RMK AO2 SLP294 T00831206 10083
 21050 50006 TSNO=
KPRB 121753Z AUTO 00000KT 10SM CLR 07/M08 A3032 RMK AO2 SLP270 T00671078 10067
 21050 50000=
KPSP 121753Z 26005KT 10SM CLR 24/M11 A3024 RMK AO2 SLP240 T02391111 10239 20117
 58000=
KPTV 121756Z AUTO 00000KT 4SM HZ CLR 11/01 A3036 RMK AO2 SLP296 T01110011 10111
 21006 50003=
KRAL 121753Z 07004KT 10SM FEW200 19/M07 A3021 RMK AO2 SLP219 T01941067 10194
 20078 58001=
KRBL 121754Z AUTO 34006KT 10SM CLR 10/00 A3035 RMK AO2 SLP279 T01000000 10100
 21017 58001=
KRDD 121753Z 00000KT 10SM CLR 04/M01 A3035 RMK AO2 SLP278 T00441006 10050 21028
 50002=
KRHV 121748Z 00000KT 10SM SKC 12/01 A3032=
KRIV 121758Z AUTO 16004KT 10SM CLR 19/M15 A3023 RMK AO2 SLP234 T01901146 10192
 21005 50001=
KRNM 121753Z 08004KT 10SM CLR 24/M14 A3020 RMK AO2 SLP213 T02391144 10244 20022=
KSAC 121753Z 00000KT 10SM CLR 09/06 A3037 RMK AO2 SLP284 T00890061 10089 21006
 51006=
KSAN 121751Z 34004KT 10SM CLR 22/M10 A3019 RMK AO2 SLP221 T02221100 10222 20100
 50001=
KSBA 121753Z 00000KT 4SM HZ FU SCT042 16/M04 A3017 RMK AO2 SLP217 T01561039
 10156 20022 50003=
KSBD 121750Z 00000KT 10SM SKC 23/M13 A3022=
KSBP 121756Z 25005KT 10SM CLR 24/M08 A3022 RMK AO2 SLP231 T02441083 10244 20094
 50001=
KSCK 121755Z 00000KT 6SM HZ CLR 08/05 A3036 RMK AO2 SLP279 T00830050 10083
 21017 50005=
KSDB 121753Z AUTO 06015G23KT 10SM CLR 16/M26 A3038 RMK AO2 SLP251 T01611256
 10161 20106 51006=
KSDM 121753Z 11006KT 10SM CLR 26/M19 A3017 RMK AO2 SLP213 T02561194 10256 20089
 58001=
KSEE 121747Z 00000KT 10SM SKC 14/M10 A3018=
KSFO 121756Z 05003KT 10SM FEW200 12/08 A3034 RMK AO2 SLP272 T01220078 10122
 20056 51006=
KSIY 121753Z AUTO 00000KT 10SM CLR M04/M04 A3055 RMK AO2 SLP384 I6000 T10391044
 11039 21094 53008=
KSJC 121753Z 00000KT 10SM FEW012 FEW035 FEW080 11/02 A3034 RMK AO2 SLP272 FU
 FEW012 FU FEW035 T01110017 10117 20028 51004 $=
KSLI 121758Z 35003KT 10SM CLR 19/M04 A3018 RMK AO2A SLP223 T01911044 10191
 20060 53001=
KSMF 121753Z 00000KT 10SM CLR 07/05 A3037 RMK AO2 SLP282 T00720050 10072 21011
 51007 $=
KSMO 121751Z 00000KT 10SM CLR 24/M08 A3019 RMK AO2 SLP223 T02441083 10244 20111
 50003=
KSMX 121751Z 00000KT 10SM FEW200 18/M11 A3023 RMK AO2 SLP238 T01781111 10178
 20006 50001 $=
KSNA 121753Z 00000KT 10SM FEW230 19/M04 A3018 RMK AO2 SLP220 T01941044 10194
 20078 50002=
KSNS 121753Z 12009KT 10SM CLR 13/M06 A3030 RMK AO2 SLP270 T01281061 10128 20050
 50004=
KSQL 121749Z 00000KT 10SM FEW200 11/08 A3034=
KSTS 121753Z 00000KT 10SM SCT250 06/04 A3034 RMK AO2 SLP270 T00560039 10056
 21022 51007=
KSUU 121758Z AUTO 04003KT 10SM CLR 08/03 A3036 RMK AO2 SLP288 T00830031 10083
 21028 52008=
KSVE 121755Z AUTO 00000KT 10SM CLR M02/M06 A3058 RMK AO2=
KTOA 121757Z 00000KT 10SM SKC 21/M10 A3019=
KTRK 121745Z 00000KT 10SM SKC M04/M06 A3054=
KTRM 121752Z AUTO 00000KT 10SM CLR 19/M12 A3022 RMK AO2 SLP232 T01941122 10194
 20033 50003=
KTVL 121753Z AUTO 00000KT 10SM CLR M01/M07 A3054 RMK AO2 SLP363 T10061067 11006
 21111 51004=
KUKI 121756Z AUTO 00000KT 10SM CLR 06/00 A3038 RMK AO2 SLP287 T00610000 10061
 21022 50002=
KVBG 121755Z 06005KT 10SM FEW000 SCT045 BKN300 18/M13 A3022 RMK AO2A FU FEW000
 THN LYR SE-SW FU SCT045 SLP236 T01791130 10179 20049 51005=
KVCB 121753Z AUTO 03004KT 10SM CLR 11/01 A3038 RMK AO2 SLP288 T01060006 10106
 21022 51008=
KVIS 121756Z AUTO 00000KT 2 1/2SM HZ CLR 08/03 A3036 RMK AO2 SLP292 T00830028
 10083 21006 50003=
KVNY 121751Z 36008KT 10SM CLR 23/M25 A3021 RMK AO2 SLP221 T02281250 10228 20094
 50001=
KWJF 121756Z 00000KT 10SM CLR 05/M21 A3039 RMK AO2 SLP307 T00501211 10050 21089
 50004=
KWVI 121753Z AUTO 00000KT 10SM CLR 13/02 A3030 RMK AO2 SLP261 T01280017 10128
 20039 51004=